Time;durP1;ratioP1;P1;durP2;ratioP2;P2;SDS_P1;SDS_P2;PMS_P1;PMS_P2;Temp;Humidity;BMP_temperature;BMP_pressure;BME280_temperature;BME280_humidity;BME280_pressure;Samples;Min_cycle;Max_cycle;Signal;HPM_P1;HPM_P2
2022/08/14 07:06:42;;;;;;;11.77;11.17;;;21.80;18.20;;;;;;5023540;23;20245;-77
2022/08/14 07:09:09;;;;;;;10.70;10.03;;;21.90;18.10;;;;;;4956600;28;20513;-78
2022/08/14 07:11:36;;;;;;;11.40;10.80;;;21.90;18.20;;;;;;4956746;28;20194;-78
2022/08/14 07:14:04;;;;;;;10.50;10.00;;;22.00;18.00;;;;;;4974905;28;20425;-78
2022/08/14 07:16:40;;;;;;;10.30;9.90;;;22.10;17.90;;;;;;4974685;28;20501;-77
2022/08/14 07:19:10;;;;;;;11.60;11.00;;;22.20;17.40;;;;;;4957528;28;20433;-79
2022/08/14 07:21:38;;;;;;;11.57;10.87;;;22.30;17.10;;;;;;4958006;28;20631;-79
2022/08/14 07:24:16;;;;;;;12.20;11.60;;;22.30;17.20;;;;;;4974523;28;20430;-80
2022/08/14 07:27:28;;;;;;;11.70;11.20;;;22.30;17.10;;;;;;4970507;28;20469;-79
2022/08/14 07:30:40;;;;;;;11.50;10.90;;;22.40;17.20;;;;;;4973915;28;21080;-80
2022/08/14 07:37:14;;;;;;;11.83;11.20;;;22.50;17.40;;;;;;4894223;29;20513;-79
2022/08/14 07:43:49;;;;;;;;;;;;;;;;;;;;;
2022/08/14 07:46:54;;;;;;;10.83;10.43;;;22.70;17.10;;;;;;4840286;29;20463;-79
2022/08/14 07:49:36;;;;;;;11.20;10.77;;;22.80;16.90;;;;;;4839887;29;20793;-80
2022/08/14 07:52:42;;;;;;;11.43;10.93;;;22.90;15.80;;;;;;4856978;29;20800;-79
2022/08/14 07:56:04;;;;;;;11.23;10.53;;;23.00;15.40;;;;;;4861319;29;20427;-80
2022/08/14 07:59:27;;;;;;;;;;;;;;;;;;;;;
2022/08/14 08:05:40;;;;;;;11.20;10.60;;;23.60;14.20;;;;;;4875352;29;20441;-79
2022/08/14 08:08:22;;;;;;;11.10;10.50;;;23.70;14.40;;;;;;4879193;29;20445;-80
2022/08/14 08:17:30;;;;;;;10.80;10.17;;;23.90;13.60;;;;;;4842989;29;20478;-79
2022/08/14 08:26:55;;;;;;;11.70;11.30;;;24.40;11.70;;;;;;4843597;29;20503;-79
2022/08/14 08:29:36;;;;;;;11.30;10.90;;;24.60;11.40;;;;;;4828125;29;20424;-79
2022/08/14 08:32:20;;;;;;;11.00;10.50;;;24.90;11.70;;;;;;4903836;29;20876;-79
2022/08/14 08:35:50;;;;;;;11.30;10.90;;;24.90;10.50;;;;;;4899214;29;20540;-79
2022/08/14 08:39:07;;;;;;;11.50;11.10;;;25.10;9.50;;;;;;4899313;29;20418;-79
2022/08/14 08:45:59;;;;;;;;;;;;;;;;;;;;;
2022/08/14 08:48:59;;;;;;;11.17;10.63;;;25.60;8.50;;;;;;4964180;29;20501;-79
2022/08/14 08:54:53;;;;;;;10.87;10.37;;;25.80;8.00;;;;;;4976931;28;20811;-78
2022/08/14 08:57:21;;;;;;;10.37;9.97;;;25.90;8.20;;;;;;4959999;28;20417;-79
2022/08/14 08:59:58;;;;;;;11.47;10.97;;;26.00;8.10;;;;;;4960172;28;20827;-75
2022/08/14 09:02:24;;;;;;;11.37;10.60;;;26.00;7.50;;;;;;4959800;28;20540;-79
2022/08/14 09:04:50;;;;;;;10.40;10.00;;;26.10;7.80;;;;;;4959532;28;21017;-77
2022/08/14 09:07:17;;;;;;;10.90;10.50;;;26.20;7.30;;;;;;4959398;28;20690;-76
2022/08/14 09:09:50;;;;;;;10.80;10.30;;;26.30;6.20;;;;;;4959493;28;20233;-76
2022/08/14 09:12:16;;;;;;;10.97;10.50;;;26.30;6.60;;;;;;4959447;28;20426;-75
2022/08/14 09:14:42;;;;;;;10.90;10.50;;;26.50;6.30;;;;;;4959278;28;20418;-75
2022/08/14 09:17:08;;;;;;;11.60;11.10;;;26.50;6.30;;;;;;4959183;28;20478;-76
2022/08/14 09:19:36;;;;;;;10.77;10.37;;;26.60;6.40;;;;;;4959351;28;20657;-76
2022/08/14 09:22:02;;;;;;;11.00;10.50;;;26.70;6.30;;;;;;4959146;28;20210;-76
2022/08/14 09:24:28;;;;;;;11.60;11.10;;;26.70;6.60;;;;;;4959048;28;21012;-78
2022/08/14 09:26:54;;;;;;;10.93;10.53;;;26.80;6.60;;;;;;4959149;28;20425;-76
2022/08/14 09:29:25;;;;;;;11.10;10.60;;;26.70;6.70;;;;;;4959213;28;20907;-76
2022/08/14 09:32:02;;;;;;;11.27;10.60;;;26.80;6.70;;;;;;4960094;28;20190;-81
2022/08/14 09:34:36;;;;;;;11.90;11.30;;;27.10;6.70;;;;;;4959731;28;20413;-75
2022/08/14 09:37:30;;;;;;;10.93;10.43;;;27.30;6.40;;;;;;4961842;28;20511;-83
2022/08/14 09:40:15;;;;;;;12.13;11.63;;;27.50;6.10;;;;;;4963643;28;20430;-84
2022/08/14 09:43:06;;;;;;;11.50;11.10;;;27.60;6.20;;;;;;4977042;28;20484;-83
2022/08/14 09:45:46;;;;;;;10.80;10.40;;;27.80;6.00;;;;;;4959670;28;20823;-83
2022/08/14 09:48:17;;;;;;;11.27;10.57;;;27.90;5.90;;;;;;4959888;28;20827;-83
2022/08/14 09:50:55;;;;;;;11.70;10.70;;;28.00;5.80;;;;;;4976613;28;20743;-83
2022/08/14 09:53:43;;;;;;;11.20;10.80;;;28.20;5.10;;;;;;4959454;28;20790;-83
2022/08/14 09:56:11;;;;;;;10.37;9.97;;;28.40;4.70;;;;;;4958689;28;20481;-78
2022/08/14 09:58:45;;;;;;;10.67;10.17;;;28.60;4.10;;;;;;4958076;28;20421;-77
2022/08/14 10:01:13;;;;;;;10.43;9.87;;;28.80;3.90;;;;;;4957659;28;20468;-77
2022/08/14 10:04:00;;;;;;;10.50;10.10;;;28.80;4.10;;;;;;4935712;29;20431;-77
2022/08/14 10:06:43;;;;;;;11.90;10.93;;;29.00;4.10;;;;;;4936391;29;20431;-78
2022/08/14 10:09:10;;;;;;;11.73;11.13;;;29.00;3.70;;;;;;4919640;29;20479;-78
2022/08/14 10:11:37;;;;;;;11.10;10.37;;;29.20;3.50;;;;;;4919705;29;20835;-77
2022/08/14 10:14:16;;;;;;;11.10;10.50;;;29.30;3.00;;;;;;4919632;29;20476;-77
2022/08/14 10:16:47;;;;;;;11.77;11.27;;;29.40;3.10;;;;;;4919552;29;20431;-77
2022/08/14 10:19:15;;;;;;;12.20;11.70;;;29.40;2.90;;;;;;4936577;29;20431;-77
2022/08/14 10:21:59;;;;;;;11.63;11.03;;;29.50;3.00;;;;;;4919264;29;20455;-78
2022/08/14 10:24:41;;;;;;;11.67;11.17;;;29.50;3.00;;;;;;4919563;29;20790;-77
2022/08/14 10:27:18;;;;;;;12.37;11.53;;;29.50;3.00;;;;;;4919331;29;20488;-78
2022/08/14 10:29:58;;;;;;;11.90;11.13;;;29.60;2.60;;;;;;4919459;29;20507;-78
2022/08/14 10:32:24;;;;;;;11.47;11.07;;;29.70;2.40;;;;;;4919853;29;20428;-77
2022/08/14 10:34:51;;;;;;;12.13;11.50;;;29.80;2.20;;;;;;4918997;29;20427;-77
2022/08/14 10:37:18;;;;;;;11.30;10.80;;;29.90;2.00;;;;;;4919281;29;20427;-77
2022/08/14 10:39:56;;;;;;;10.97;10.57;;;29.80;1.90;;;;;;4935527;29;20423;-78
2022/08/14 10:42:22;;;;;;;11.23;10.73;;;29.70;1.80;;;;;;4919569;29;20470;-77
2022/08/14 10:44:49;;;;;;;11.00;10.50;;;29.80;1.70;;;;;;4919621;29;20924;-77
2022/08/14 10:47:17;;;;;;;14.40;13.60;;;29.90;1.80;;;;;;4919389;29;20416;-76
2022/08/14 10:50:00;;;;;;;12.00;11.40;;;29.90;1.90;;;;;;4919348;29;20901;-75
2022/08/14 10:52:31;;;;;;;13.40;12.50;;;30.00;1.30;;;;;;4935804;29;20432;-75
2022/08/14 10:55:14;;;;;;;11.93;11.43;;;30.00;1.40;;;;;;4935105;29;20431;-77
2022/08/14 10:57:52;;;;;;;12.30;11.70;;;30.00;1.20;;;;;;4919324;29;20831;-76
2022/08/14 11:00:25;;;;;;;12.17;11.67;;;30.00;1.30;;;;;;4934972;29;20511;-76
2022/08/14 11:03:08;;;;;;;12.30;11.80;;;30.00;1.10;;;;;;4918676;29;20474;-77
2022/08/14 11:05:46;;;;;;;11.93;11.43;;;29.90;1.00;;;;;;4919069;29;20539;-76
2022/08/14 11:08:15;;;;;;;11.70;11.20;;;29.90;1.10;;;;;;4918507;29;20447;-76
2022/08/14 11:11:02;;;;;;;11.40;10.90;;;30.00;1.30;;;;;;4918485;29;20935;-76
2022/08/14 11:13:30;;;;;;;11.40;10.80;;;30.00;1.30;;;;;;4918610;29;20419;-76
2022/08/14 11:15:59;;;;;;;10.90;10.40;;;29.90;1.50;;;;;;4936266;29;20503;-77
2022/08/14 11:18:27;;;;;;;10.70;10.30;;;29.80;1.90;;;;;;4918942;29;20427;-78
2022/08/14 11:20:58;;;;;;;11.00;10.60;;;29.80;1.20;;;;;;4934583;29;20904;-78
2022/08/14 11:23:37;;;;;;;11.43;10.93;;;29.80;1.00;;;;;;4934682;29;20432;-77
2022/08/14 11:26:05;;;;;;;11.40;10.90;;;29.80;1.00;;;;;;4918880;29;20427;-79
2022/08/14 11:28:37;;;;;;;11.40;10.90;;;29.70;1.00;;;;;;4918942;29;20840;-76
2022/08/14 11:31:04;;;;;;;11.50;11.00;;;29.60;1.00;;;;;;4918652;29;20475;-76
2022/08/14 11:33:33;;;;;;;11.20;10.50;;;29.60;1.20;;;;;;4921775;29;20916;-76
2022/08/14 11:36:01;;;;;;;10.97;10.47;;;29.70;1.00;;;;;;4923805;29;20497;-75
2022/08/14 11:38:47;;;;;;;12.53;11.77;;;29.70;1.10;;;;;;4936954;29;20427;-76
2022/08/14 11:41:14;;;;;;;11.27;10.77;;;29.80;1.20;;;;;;4933710;29;20415;-76
2022/08/14 11:43:42;;;;;;;11.63;11.13;;;29.70;1.00;;;;;;4934219;29;20432;-76
2022/08/14 11:46:09;;;;;;;12.63;11.97;;;29.70;1.40;;;;;;4933967;29;20514;-76
2022/08/14 11:48:48;;;;;;;12.17;11.73;;;29.70;1.00;;;;;;4934168;29;20432;-76
2022/08/14 11:51:25;;;;;;;12.37;11.87;;;29.80;1.00;;;;;;4934147;29;20423;-75
2022/08/14 11:54:12;;;;;;;12.20;11.50;;;29.70;1.00;;;;;;4934182;29;20451;-76
2022/08/14 11:56:40;;;;;;;12.30;11.80;;;29.70;1.00;;;;;;4918364;29;20809;-75
2022/08/14 11:59:08;;;;;;;12.43;11.93;;;29.70;1.00;;;;;;4918080;29;20563;-75
2022/08/14 12:01:35;;;;;;;12.07;11.57;;;29.90;1.00;;;;;;4933985;29;20460;-75
2022/08/14 12:04:17;;;;;;;12.50;12.00;;;30.00;1.00;;;;;;4933959;29;20935;-75
2022/08/14 12:06:49;;;;;;;11.80;11.20;;;30.00;1.00;;;;;;4933546;29;20431;-75
2022/08/14 12:09:34;;;;;;;12.20;11.70;;;29.90;1.00;;;;;;4933553;29;20424;-75
2022/08/14 12:12:11;;;;;;;12.10;11.60;;;29.90;1.00;;;;;;4933357;29;20915;-75
2022/08/14 12:14:52;;;;;;;11.83;11.33;;;29.70;1.00;;;;;;4933661;29;20420;-75
2022/08/14 12:17:18;;;;;;;12.10;11.60;;;29.70;1.00;;;;;;4933470;29;20451;-75
2022/08/14 12:19:53;;;;;;;11.90;11.30;;;29.90;1.00;;;;;;4933720;29;20475;-75
2022/08/14 12:22:40;;;;;;;11.97;11.47;;;29.90;1.00;;;;;;4933310;29;20470;-75
2022/08/14 12:25:11;;;;;;;11.73;11.13;;;30.00;1.00;;;;;;4916724;29;20427;-75
2022/08/14 12:27:43;;;;;;;11.80;11.30;;;30.00;1.00;;;;;;4933274;29;20424;-75
2022/08/14 12:30:12;;;;;;;12.30;11.80;;;30.00;1.00;;;;;;4933209;29;20412;-75
2022/08/14 12:32:43;;;;;;;11.40;11.00;;;29.90;1.00;;;;;;4933239;29;20443;-75
2022/08/14 12:35:10;;;;;;;11.77;11.07;;;29.90;1.00;;;;;;4933329;29;20435;-75
2022/08/14 12:37:37;;;;;;;12.37;11.60;;;29.90;1.00;;;;;;4933326;29;20424;-75
2022/08/14 12:40:13;;;;;;;11.37;10.97;;;29.80;1.00;;;;;;4929203;29;20436;-75
2022/08/14 12:42:39;;;;;;;12.37;11.77;;;29.80;1.00;;;;;;4931748;29;20863;-75
2022/08/14 12:45:15;;;;;;;11.90;11.40;;;29.90;1.00;;;;;;4933261;29;20420;-75
2022/08/14 12:47:41;;;;;;;11.90;11.40;;;30.00;1.00;;;;;;4933166;29;20428;-75
2022/08/14 12:50:09;;;;;;;12.00;11.60;;;29.90;1.00;;;;;;4933328;28;20463;-75
2022/08/14 12:52:40;;;;;;;11.30;10.80;;;30.10;1.00;;;;;;4955518;28;20430;-75
2022/08/14 12:55:17;;;;;;;11.63;11.23;;;30.10;1.00;;;;;;4969196;28;20483;-75
2022/08/14 12:57:50;;;;;;;10.93;10.53;;;30.00;1.00;;;;;;4935839;28;20466;-75
2022/08/14 13:00:18;;;;;;;11.47;10.80;;;30.00;1.00;;;;;;4939071;29;20430;-75
2022/08/14 13:02:46;;;;;;;11.30;10.90;;;29.90;1.00;;;;;;4939536;29;20470;-75
2022/08/14 13:05:13;;;;;;;11.00;10.60;;;30.00;1.00;;;;;;4939214;29;20494;-76
2022/08/14 13:07:40;;;;;;;11.30;10.90;;;30.20;1.00;;;;;;4939553;29;20945;-76
2022/08/14 13:10:10;;;;;;;10.83;10.43;;;30.20;1.00;;;;;;4939213;29;20438;-76
2022/08/14 13:12:37;;;;;;;11.13;10.73;;;30.00;1.00;;;;;;4939313;29;20469;-75
2022/08/14 13:15:06;;;;;;;11.33;10.80;;;30.10;1.00;;;;;;4939526;29;20477;-75
2022/08/14 13:17:40;;;;;;;11.27;10.27;;;30.10;1.00;;;;;;4939605;29;20431;-76
2022/08/14 13:20:09;;;;;;;10.83;10.40;;;30.10;1.00;;;;;;4938884;29;20620;-76
2022/08/14 13:22:36;;;;;;;10.73;10.33;;;30.20;1.00;;;;;;4939231;29;20521;-76
2022/08/14 13:25:03;;;;;;;11.27;10.77;;;30.20;1.00;;;;;;4939083;29;20442;-76
2022/08/14 13:27:32;;;;;;;10.80;10.40;;;30.20;1.00;;;;;;4939053;29;20486;-76
2022/08/14 13:30:00;;;;;;;10.10;9.80;;;30.20;1.00;;;;;;4939346;29;20510;-76
2022/08/14 13:32:28;;;;;;;10.50;10.10;;;30.10;1.00;;;;;;4940248;29;20470;-75
2022/08/14 13:34:56;;;;;;;10.97;10.47;;;30.00;1.00;;;;;;4940062;29;20423;-75
2022/08/14 13:37:22;;;;;;;11.00;10.60;;;29.90;1.00;;;;;;4940088;29;20431;-75
2022/08/14 13:39:51;;;;;;;11.40;10.60;;;29.90;1.00;;;;;;4939958;29;20506;-75
2022/08/14 13:42:20;;;;;;;11.30;10.90;;;29.90;1.00;;;;;;4939335;29;20551;-75
2022/08/14 13:44:52;;;;;;;11.30;10.80;;;29.90;1.00;;;;;;4939022;29;20431;-75
2022/08/14 13:47:19;;;;;;;10.60;10.10;;;29.80;1.00;;;;;;4939185;29;20427;-76
2022/08/14 13:49:46;;;;;;;11.10;10.70;;;29.80;1.00;;;;;;4938570;29;20939;-75
2022/08/14 13:52:18;;;;;;;10.80;10.40;;;29.80;1.00;;;;;;4938430;29;20464;-75
2022/08/14 13:54:49;;;;;;;10.17;9.73;;;29.70;1.00;;;;;;4938764;29;20526;-75
2022/08/14 13:57:16;;;;;;;10.13;9.83;;;29.80;1.00;;;;;;4938488;29;20510;-76
2022/08/14 13:59:50;;;;;;;11.17;10.77;;;29.90;1.00;;;;;;4938671;29;20419;-75
2022/08/14 14:02:18;;;;;;;9.97;9.67;;;30.10;1.00;;;;;;4938355;29;20801;-75
2022/08/14 14:04:47;;;;;;;10.10;9.70;;;30.10;1.00;;;;;;4938516;29;20978;-75
2022/08/14 14:07:20;;;;;;;9.97;9.63;;;30.10;1.00;;;;;;4955402;29;20435;-75
2022/08/14 14:09:47;;;;;;;9.80;9.50;;;30.30;1.00;;;;;;4937575;29;20443;-75
2022/08/14 14:12:14;;;;;;;9.60;9.30;;;30.30;1.00;;;;;;4937835;29;20830;-75
2022/08/14 14:14:41;;;;;;;9.70;9.40;;;30.20;1.00;;;;;;4957336;28;20423;-75
2022/08/14 14:17:11;;;;;;;10.20;9.80;;;30.10;1.00;;;;;;4943720;28;20430;-75
2022/08/14 14:19:40;;;;;;;10.20;9.80;;;30.10;1.00;;;;;;4938200;29;20431;-75
2022/08/14 14:22:06;;;;;;;10.23;9.83;;;30.00;1.00;;;;;;4936989;29;20485;-75
2022/08/14 14:24:32;;;;;;;9.67;9.27;;;30.00;1.00;;;;;;4933813;29;20532;-75
2022/08/14 14:27:04;;;;;;;10.27;9.87;;;30.00;1.00;;;;;;4918982;29;20432;-75
2022/08/14 14:29:31;;;;;;;10.53;10.13;;;30.10;1.00;;;;;;4919089;29;20439;-75
2022/08/14 14:31:59;;;;;;;10.50;10.10;;;30.20;1.00;;;;;;4935816;29;21003;-75
2022/08/14 14:34:28;;;;;;;10.60;10.10;;;30.20;1.00;;;;;;4939401;29;20527;-75
2022/08/14 14:36:54;;;;;;;10.50;10.10;;;30.10;1.00;;;;;;4938430;29;20910;-75
2022/08/14 14:39:24;;;;;;;10.30;9.90;;;30.20;1.00;;;;;;4941640;29;20499;-76
2022/08/14 14:41:54;;;;;;;10.27;9.90;;;30.30;1.00;;;;;;4940926;29;20427;-75
2022/08/14 14:44:28;;;;;;;10.33;9.80;;;30.40;1.00;;;;;;4937909;29;20885;-74
2022/08/14 14:46:57;;;;;;;10.20;9.80;;;30.30;1.00;;;;;;4937651;29;20427;-75
2022/08/14 14:49:23;;;;;;;9.17;8.87;;;30.40;1.00;;;;;;4937773;28;20426;-74
2022/08/14 14:51:49;;;;;;;9.10;8.70;;;30.60;1.00;;;;;;4937392;29;20868;-73
2022/08/14 14:54:18;;;;;;;9.80;9.30;;;30.60;1.00;;;;;;4936696;28;20427;-73
2022/08/14 14:56:45;;;;;;;9.53;9.13;;;30.60;1.00;;;;;;4954237;28;20611;-76
2022/08/14 14:59:15;;;;;;;10.80;10.30;;;30.50;1.00;;;;;;4937688;28;20426;-75
2022/08/14 15:01:46;;;;;;;10.00;9.60;;;30.30;1.00;;;;;;4937959;29;20452;-79
2022/08/14 15:04:12;;;;;;;10.53;10.13;;;30.20;1.00;;;;;;4936729;28;20494;-80
2022/08/14 15:06:38;;;;;;;10.13;9.73;;;30.10;1.00;;;;;;4937069;29;20930;-80
2022/08/14 15:09:04;;;;;;;10.43;10.03;;;30.00;1.00;;;;;;4936655;28;20470;-79
2022/08/14 15:11:33;;;;;;;10.53;10.13;;;30.00;1.00;;;;;;4954295;28;20466;-79
2022/08/14 15:13:59;;;;;;;11.07;10.37;;;30.10;1.00;;;;;;4937181;28;20430;-79
2022/08/14 15:16:26;;;;;;;11.37;10.97;;;30.20;1.00;;;;;;4937582;29;20423;-79
2022/08/14 15:18:52;;;;;;;11.07;10.67;;;30.10;1.00;;;;;;4937473;29;20990;-79
2022/08/14 15:21:18;;;;;;;11.40;10.90;;;30.10;1.00;;;;;;4936832;28;20423;-79
2022/08/14 15:23:46;;;;;;;10.30;9.87;;;30.00;1.00;;;;;;4937601;29;20338;-79
2022/08/14 15:26:14;;;;;;;11.60;10.90;;;30.00;1.00;;;;;;4937599;28;20430;-80
2022/08/14 15:28:42;;;;;;;12.43;11.70;;;30.00;1.00;;;;;;4937298;29;20419;-80
2022/08/14 15:31:08;;;;;;;11.93;11.43;;;29.90;1.00;;;;;;4936949;28;20438;-80
2022/08/14 15:36:18;;;;;;;10.50;10.10;;;29.60;1.00;;;;;;4954741;28;20501;-80
2022/08/14 15:38:45;;;;;;;10.83;10.43;;;29.50;1.00;;;;;;4937302;29;20489;-79
2022/08/14 15:41:12;;;;;;;10.10;9.70;;;29.50;1.00;;;;;;4936928;29;20514;-79
2022/08/14 15:43:44;;;;;;;11.27;10.87;;;29.50;1.00;;;;;;4937184;29;20990;-79
2022/08/14 15:46:10;;;;;;;11.00;10.50;;;29.50;1.00;;;;;;4937215;28;20423;-78
2022/08/14 15:48:36;;;;;;;11.13;10.67;;;29.40;1.00;;;;;;4937154;29;20486;-79
2022/08/14 15:51:02;;;;;;;11.30;10.80;;;29.50;1.00;;;;;;4936723;28;20919;-78
2022/08/14 15:53:28;;;;;;;10.70;10.00;;;29.50;1.00;;;;;;4937152;29;20278;-78
2022/08/14 15:55:55;;;;;;;11.77;11.00;;;29.40;1.00;;;;;;4937161;29;20447;-79
2022/08/14 15:58:23;;;;;;;11.10;10.70;;;29.40;1.00;;;;;;4936922;29;20196;-79
2022/08/14 16:03:34;;;;;;;11.03;10.63;;;29.30;1.00;;;;;;4954545;28;20735;-78
2022/08/14 16:06:00;;;;;;;10.37;9.97;;;29.20;1.00;;;;;;4936786;28;20423;-78
2022/08/14 16:08:25;;;;;;;10.63;10.23;;;29.10;1.00;;;;;;4936754;29;20439;-78
2022/08/14 16:10:51;;;;;;;11.23;10.83;;;29.10;1.00;;;;;;4936679;29;20207;-78
2022/08/14 16:13:20;;;;;;;10.50;10.10;;;29.10;1.00;;;;;;4936749;29;20219;-78
2022/08/14 16:15:46;;;;;;;12.00;10.97;;;29.10;1.00;;;;;;4936907;29;20183;-78
2022/08/14 16:18:17;;;;;;;10.50;10.10;;;29.00;1.00;;;;;;4936886;28;20433;-78
2022/08/14 16:20:46;;;;;;;11.50;11.00;;;29.00;1.00;;;;;;4936541;29;20419;-78
2022/08/14 16:23:12;;;;;;;10.27;9.87;;;29.00;1.00;;;;;;4936703;28;20445;-78
2022/08/14 16:25:42;;;;;;;11.47;10.97;;;29.00;1.00;;;;;;4936884;29;20802;-78
2022/08/14 16:28:08;;;;;;;10.53;10.13;;;29.10;1.00;;;;;;4936681;29;20465;-78
2022/08/14 16:30:34;;;;;;;10.77;10.27;;;29.10;1.00;;;;;;4936483;29;20451;-78
2022/08/14 16:33:05;;;;;;;11.30;10.80;;;29.00;1.00;;;;;;4936620;29;20266;-78
2022/08/14 16:35:37;;;;;;;11.07;10.63;;;29.00;1.00;;;;;;4940648;29;20433;-77
2022/08/14 16:38:07;;;;;;;11.10;10.33;;;28.90;1.00;;;;;;4940216;28;20473;-73
2022/08/14 16:40:33;;;;;;;10.80;10.33;;;29.10;1.00;;;;;;4940245;29;20430;-73
2022/08/14 16:43:02;;;;;;;10.10;9.70;;;29.00;1.00;;;;;;4940371;29;20462;-73
2022/08/14 16:45:31;;;;;;;14.53;13.53;;;29.00;1.00;;;;;;4940580;29;20573;-73
2022/08/14 16:48:00;;;;;;;11.83;11.23;;;28.90;1.00;;;;;;4936712;29;20478;-73
2022/08/14 16:50:27;;;;;;;12.03;11.43;;;28.90;1.00;;;;;;4936897;29;20428;-73
2022/08/14 16:52:53;;;;;;;10.43;10.03;;;28.80;1.00;;;;;;4937169;29;20486;-73
2022/08/14 16:55:22;;;;;;;10.27;9.87;;;28.80;1.00;;;;;;4937075;29;20435;-73
2022/08/14 16:57:48;;;;;;;10.80;10.20;;;28.80;1.00;;;;;;4936973;29;20515;-73
2022/08/14 17:00:43;;;;;;;10.17;9.77;;;28.80;1.00;;;;;;4936672;29;20424;-73
2022/08/14 17:03:11;;;;;;;10.93;10.30;;;28.70;1.00;;;;;;4924558;29;20416;-73
2022/08/14 17:05:40;;;;;;;11.00;10.40;;;28.70;1.00;;;;;;4936839;29;20484;-73
2022/08/14 17:08:08;;;;;;;10.73;10.23;;;28.70;1.00;;;;;;4936685;29;20780;-73
2022/08/14 17:11:18;;;;;;;10.40;9.73;;;28.60;1.00;;;;;;4936464;29;20928;-73
2022/08/14 17:17:13;;;;;;;10.73;10.23;;;28.60;1.00;;;;;;4938271;29;20456;-73
2022/08/14 17:19:39;;;;;;;9.80;9.40;;;28.50;1.00;;;;;;4936681;29;20416;-73
2022/08/14 17:22:08;;;;;;;10.50;10.10;;;28.50;1.00;;;;;;4937649;29;20836;-73
2022/08/14 17:24:35;;;;;;;9.87;9.47;;;28.40;1.00;;;;;;4957664;28;20433;-72
2022/08/14 17:27:01;;;;;;;9.70;9.20;;;28.40;1.00;;;;;;4958860;28;20466;-72
2022/08/14 17:29:33;;;;;;;9.90;9.50;;;28.40;1.00;;;;;;4960264;28;20469;-72
2022/08/14 17:32:05;;;;;;;9.57;9.17;;;28.40;1.00;;;;;;4959646;28;20545;-72
2022/08/14 17:34:50;;;;;;;10.20;9.80;;;28.40;1.00;;;;;;4959118;28;20769;-72
2022/08/14 17:37:31;;;;;;;9.60;9.20;;;28.30;1.00;;;;;;4959097;28;20422;-73
2022/08/14 17:40:21;;;;;;;10.63;10.03;;;28.40;1.00;;;;;;4958464;28;20513;-73
2022/08/14 17:42:57;;;;;;;10.07;9.57;;;28.40;1.00;;;;;;4958361;28;20564;-72
2022/08/14 17:45:44;;;;;;;9.70;9.30;;;28.30;1.00;;;;;;4958317;28;20422;-72
2022/08/14 17:48:30;;;;;;;9.90;9.40;;;28.30;1.00;;;;;;4958428;28;20925;-72
2022/08/14 17:50:59;;;;;;;10.40;9.80;;;28.30;1.00;;;;;;4958240;28;20418;-72
2022/08/14 17:53:24;;;;;;;10.57;9.97;;;28.30;1.00;;;;;;4958279;28;20462;-72
2022/08/14 17:55:52;;;;;;;10.20;9.80;;;28.30;1.00;;;;;;4958262;28;20426;-72
2022/08/14 17:58:23;;;;;;;9.43;8.93;;;28.30;1.00;;;;;;4958287;28;20179;-72
2022/08/14 18:00:56;;;;;;;9.50;9.10;;;28.20;1.00;;;;;;4942171;28;20441;-72
2022/08/14 18:03:25;;;;;;;8.90;8.60;;;28.20;1.00;;;;;;4956895;28;20426;-72
2022/08/14 18:05:51;;;;;;;9.80;9.30;;;28.10;1.00;;;;;;4958058;28;20433;-72
2022/08/14 18:08:19;;;;;;;9.10;8.70;;;28.10;1.00;;;;;;4975417;28;20451;-72
2022/08/14 18:10:45;;;;;;;9.90;9.40;;;28.00;1.00;;;;;;4957838;28;20795;-72
2022/08/14 18:13:12;;;;;;;9.50;9.10;;;27.90;1.00;;;;;;4957926;28;20465;-73
2022/08/14 18:15:41;;;;;;;9.43;9.03;;;27.90;1.00;;;;;;4975361;28;20428;-73
2022/08/14 18:18:09;;;;;;;9.07;8.77;;;27.90;1.00;;;;;;4957855;28;20426;-73
2022/08/14 18:20:45;;;;;;;9.90;9.30;;;27.90;1.00;;;;;;4957737;28;20439;-73
2022/08/14 18:23:13;;;;;;;9.30;8.80;;;27.80;1.00;;;;;;4957621;28;20457;-73
2022/08/14 18:25:52;;;;;;;9.63;9.13;;;27.80;1.00;;;;;;4957880;28;20813;-73
2022/08/14 18:28:35;;;;;;;11.40;10.90;;;27.80;1.00;;;;;;4957641;28;20433;-73
2022/08/14 18:31:19;;;;;;;9.10;8.60;;;27.70;1.00;;;;;;4957499;28;20426;-73
2022/08/14 18:33:56;;;;;;;8.73;8.33;;;27.70;1.00;;;;;;4957679;28;20433;-73
2022/08/14 18:36:44;;;;;;;8.37;7.97;;;27.60;1.00;;;;;;4975175;28;20886;-73
2022/08/14 18:39:44;;;;;;;8.37;8.07;;;27.60;1.00;;;;;;4957489;28;20926;-74
2022/08/14 18:42:19;;;;;;;9.47;8.93;;;27.50;1.00;;;;;;4957285;28;20414;-74
2022/08/14 18:44:57;;;;;;;9.30;8.90;;;27.50;1.00;;;;;;4957261;28;20429;-74
2022/08/14 18:47:24;;;;;;;9.10;8.73;;;27.50;1.00;;;;;;4957791;28;20441;-75
2022/08/14 18:49:53;;;;;;;10.20;9.60;;;27.50;1.00;;;;;;4938190;29;21064;-75
2022/08/14 18:52:20;;;;;;;10.03;9.53;;;27.40;1.00;;;;;;4935199;29;20475;-75
2022/08/14 18:54:46;;;;;;;9.90;9.50;;;27.40;1.00;;;;;;4935254;29;20433;-75
2022/08/14 18:57:12;;;;;;;8.20;7.90;;;27.30;1.00;;;;;;4934598;29;20482;-75
2022/08/14 18:59:40;;;;;;;9.30;8.37;;;27.30;1.10;;;;;;4935099;29;20601;-75
2022/08/14 19:02:28;;;;;;;8.70;8.40;;;27.30;1.30;;;;;;4934619;29;20431;-75
2022/08/14 19:04:58;;;;;;;9.40;8.87;;;27.20;1.40;;;;;;4936106;29;20423;-75
2022/08/14 19:07:24;;;;;;;8.70;8.40;;;27.20;1.50;;;;;;4935984;29;20439;-74
2022/08/14 19:09:59;;;;;;;9.60;9.10;;;27.20;1.60;;;;;;4934746;29;20519;-73
2022/08/14 19:12:58;;;;;;;9.17;8.77;;;27.20;1.70;;;;;;4934909;29;20481;-72
2022/08/14 19:15:33;;;;;;;8.80;8.40;;;27.20;1.80;;;;;;4936249;29;20471;-72
2022/08/14 19:18:21;;;;;;;9.00;8.60;;;27.20;1.90;;;;;;4934730;29;20501;-73
2022/08/14 19:20:59;;;;;;;8.80;8.40;;;27.20;2.10;;;;;;4934397;29;20803;-73
2022/08/14 19:23:28;;;;;;;8.90;8.60;;;27.10;2.30;;;;;;4934615;29;20423;-73
2022/08/14 19:26:00;;;;;;;9.60;9.17;;;27.10;2.60;;;;;;4934861;29;20865;-73
2022/08/14 19:28:44;;;;;;;10.03;9.53;;;27.10;2.80;;;;;;4935977;29;20404;-73
2022/08/14 19:31:24;;;;;;;8.97;8.63;;;27.10;3.00;;;;;;4934286;29;20793;-73
2022/08/14 19:33:52;;;;;;;9.90;9.43;;;27.10;3.30;;;;;;4935602;29;20916;-74
2022/08/14 19:36:20;;;;;;;9.53;9.13;;;27.00;3.40;;;;;;4933762;29;20439;-74
2022/08/14 19:39:00;;;;;;;10.37;9.73;;;27.00;3.60;;;;;;4933947;29;20419;-74
2022/08/14 19:41:33;;;;;;;9.60;9.10;;;27.00;4.00;;;;;;4932776;29;20414;-74
2022/08/14 19:44:08;;;;;;;9.67;9.07;;;27.00;4.60;;;;;;4933673;29;20420;-74
2022/08/14 19:46:34;;;;;;;9.77;9.07;;;26.90;4.00;;;;;;4933715;29;20958;-74
2022/08/14 19:49:01;;;;;;;10.00;9.60;;;26.90;4.60;;;;;;4933839;29;20468;-74
2022/08/14 19:51:27;;;;;;;9.90;9.50;;;26.90;4.90;;;;;;4933826;29;20774;-74
2022/08/14 19:54:06;;;;;;;10.50;9.90;;;26.90;5.30;;;;;;4934038;29;20471;-75
2022/08/14 19:56:41;;;;;;;10.17;9.57;;;26.80;5.70;;;;;;4934258;29;20781;-75
2022/08/14 19:59:07;;;;;;;9.60;8.90;;;26.80;6.10;;;;;;4935918;29;20464;-75
2022/08/14 20:01:36;;;;;;;9.77;9.33;;;26.80;6.50;;;;;;4936132;29;20447;-75
2022/08/14 20:04:06;;;;;;;10.73;10.03;;;26.80;7.10;;;;;;4935040;29;20451;-75
2022/08/14 20:06:40;;;;;;;9.40;9.00;;;26.70;7.60;;;;;;4934921;29;20566;-75
2022/08/14 20:09:08;;;;;;;9.53;9.10;;;26.70;7.70;;;;;;4933455;29;20826;-75
2022/08/14 20:11:38;;;;;;;10.03;9.63;;;26.70;8.00;;;;;;4933481;29;20487;-75
2022/08/14 20:14:13;;;;;;;10.20;9.60;;;26.60;8.00;;;;;;4928742;29;20765;-75
2022/08/14 20:16:53;;;;;;;10.70;10.10;;;26.60;8.30;;;;;;4932661;29;20428;-75
2022/08/14 20:19:23;;;;;;;10.53;9.83;;;26.60;8.40;;;;;;4954434;28;20422;-75
2022/08/14 20:21:53;;;;;;;10.53;10.03;;;26.60;8.40;;;;;;4955415;28;20435;-75
2022/08/14 20:24:26;;;;;;;9.63;9.23;;;26.60;8.40;;;;;;4955333;28;20450;-75
2022/08/14 20:27:17;;;;;;;10.87;10.37;;;26.60;8.40;;;;;;4955563;28;20461;-75
2022/08/14 20:29:43;;;;;;;10.83;10.10;;;26.50;8.50;;;;;;4955557;28;20493;-75
2022/08/14 20:32:13;;;;;;;11.20;10.40;;;26.50;8.40;;;;;;4940219;29;20443;-75
2022/08/14 20:34:40;;;;;;;10.63;10.03;;;26.50;8.80;;;;;;4936723;29;20780;-74
2022/08/14 20:37:14;;;;;;;10.70;10.20;;;26.50;8.80;;;;;;4936240;29;20419;-74
2022/08/14 20:39:45;;;;;;;10.57;9.80;;;26.50;8.80;;;;;;4936645;29;20419;-74
2022/08/14 20:45:21;;;;;;;11.03;10.33;;;26.50;9.20;;;;;;4954035;29;20502;-75
2022/08/14 20:48:00;;;;;;;10.80;10.30;;;26.50;9.30;;;;;;4936903;29;20426;-75
2022/08/14 20:50:28;;;;;;;10.20;9.70;;;26.40;9.40;;;;;;4935902;29;20437;-75
2022/08/14 20:52:58;;;;;;;11.97;10.83;;;26.50;9.50;;;;;;4936147;29;20462;-74
2022/08/14 20:55:29;;;;;;;10.43;9.73;;;26.40;9.50;;;;;;4937267;29;20533;-73
2022/08/14 20:58:04;;;;;;;11.47;10.87;;;26.40;9.60;;;;;;4936261;29;20427;-73
2022/08/14 21:00:41;;;;;;;10.60;9.80;;;26.30;9.70;;;;;;4934928;28;20921;-73
2022/08/14 21:03:32;;;;;;;9.60;9.20;;;26.30;9.60;;;;;;4953684;28;20426;-73
2022/08/14 21:06:20;;;;;;;10.80;10.20;;;26.20;9.70;;;;;;4943589;28;20478;-74